Key Field
KMEI : now visible

Airfield :











YOU CAN JOIN US ON...

 
LOGIN :

Register | Disclaimer

   EN    FR    IT 

 









Legend :    VFR   Marginal VFR   IFR   Intensive IFR   Very Intensive IFR
Visi :
Ceiling :
>= 8 km
>= 3000ft
5 to 8 km
1000 to 3000 ft
1500m to 5 km
500 to 1000 ft
800 to 1500m
200 to 500 ft
< 800m
< 200 ft
Symbols :   Thunderstorms  Fog  Heavy snow  Heavy precipitations  Wind > 20 kt






- Airport Elevation : 297 ft
- IATA code : MEI


KMEI - Key Field

CURRENT METAR :
  • 211758Z 30003KT 10SM SCT026 27/19 A3011 RMK AO2 SLP192 60000 T02670189 10278 20211 58016

EXPIRED METARs :
  • 211658Z VRB03KT 10SM SCT019 27/20 A3014 RMK AO2 SLP201 T02720200
  • 211639Z 00000KT 10SM SCT019 27/20 A3015 RMK AO2 T02670200
  • 211558Z VRB04KT 10SM BKN010 26/21 A3016 RMK AO2 SLP208 T02560211
  • 211529Z 22006KT 10SM OVC009 24/21 A3016 RMK AO2 T02390211

TAF KMEI
Valid from the 21 at 18:00 until the 22 at 18:00 UTC


211724Z 2118/2218 26005KT P6SM SCT050
FM212300 30004KT P6SM VCSH BKN050
FM220300 36003KT P6SM SCT250
KZME FIR / North America



MET'MAP, your aeronautical weather chart ! - Copyright ORBIFLY December 2007 - Disclaimer

ORBIFLY MET'MAP TEAM :

Programming & Development : Alexandra Zaïnal
Concept & original design : Baudouin d'Aumeries
Assistance for programming : Marc-Olivier Méhu
Technical & hardware support : Manuel Goepfert

Contact : metmap@orbifly.com




SOURCES & CREDITS :

   NOAA       Earth
Advisory